Mound City, South Dakota
Current Conditions -  °F | °C
As of 11:52 AM on Saturday 20 Dec 2014 (Local Time) from KMBG Reporting Station
Haze Haze  
Wind Chill: 17°   Ceiling: 9500
Heat Index: 27°   Visibility: 6mi
Dew Point: 24°   Wind: 10mph
Humidity: 89%   Direction: 140°SE
Pressure: 29.89"   Gusts: NA
Location:  45.73°N, 100.07°W
Report Text: KMBG 201752Z AUTO 14009KT 6SM BR SCT080 OVC095 M03/M04 A2989 RMK AO2 SLP147 T10281044 11028 21072 50001
Loading
Personal Weather Stations






























Interactive Weather Map New forecast layout! Learn more

10-Day Weather Forecast

Advertisements
Track Severe Weather on mobile